sensor_id;sensor_type;location;lat;lon;timestamp;P1;durP1;ratioP1;P2;durP2;ratioP2
62957;SDS011;49056;48.352;10.926;2022-08-19T00:01:04;1.07;;;0.50;;
62957;SDS011;49056;48.352;10.926;2022-08-19T00:06:26;1.10;;;0.65;;
62957;SDS011;49056;48.352;10.926;2022-08-19T00:11:46;1.30;;;0.73;;
62957;SDS011;49056;48.352;10.926;2022-08-19T00:17:07;0.53;;;0.40;;
62957;SDS011;49056;48.352;10.926;2022-08-19T00:22:27;1.00;;;0.60;;
62957;SDS011;49056;48.352;10.926;2022-08-19T00:27:48;0.98;;;0.47;;
62957;SDS011;49056;48.352;10.926;2022-08-19T00:33:09;0.93;;;0.37;;
62957;SDS011;49056;48.352;10.926;2022-08-19T00:38:30;0.57;;;0.40;;
62957;SDS011;49056;48.352;10.926;2022-08-19T00:44:02;0.55;;;0.55;;
62957;SDS011;49056;48.352;10.926;2022-08-19T00:49:25;0.93;;;0.40;;
62957;SDS011;49056;48.352;10.926;2022-08-19T00:54:48;1.20;;;0.47;;
62957;SDS011;49056;48.352;10.926;2022-08-19T01:00:11;1.42;;;0.28;;
62957;SDS011;49056;48.352;10.926;2022-08-19T01:05:34;1.00;;;0.50;;
62957;SDS011;49056;48.352;10.926;2022-08-19T01:10:55;0.85;;;0.50;;
62957;SDS011;49056;48.352;10.926;2022-08-19T01:16:17;0.30;;;0.30;;
62957;SDS011;49056;48.352;10.926;2022-08-19T01:21:42;0.68;;;0.30;;
62957;SDS011;49056;48.352;10.926;2022-08-19T01:27:04;0.62;;;0.30;;
62957;SDS011;49056;48.352;10.926;2022-08-19T01:32:24;0.82;;;0.40;;
62957;SDS011;49056;48.352;10.926;2022-08-19T01:37:50;0.60;;;0.35;;
62957;SDS011;49056;48.352;10.926;2022-08-19T01:43:11;0.70;;;0.30;;
62957;SDS011;49056;48.352;10.926;2022-08-19T01:48:33;0.80;;;0.50;;
62957;SDS011;49056;48.352;10.926;2022-08-19T01:53:54;0.40;;;0.30;;
62957;SDS011;49056;48.352;10.926;2022-08-19T01:59:16;0.73;;;0.43;;
62957;SDS011;49056;48.352;10.926;2022-08-19T02:04:37;0.98;;;0.55;;
62957;SDS011;49056;48.352;10.926;2022-08-19T02:09:58;1.80;;;0.88;;
62957;SDS011;49056;48.352;10.926;2022-08-19T02:15:18;1.30;;;0.75;;
62957;SDS011;49056;48.352;10.926;2022-08-19T02:20:39;1.42;;;0.80;;
62957;SDS011;49056;48.352;10.926;2022-08-19T02:26:00;2.00;;;1.02;;
62957;SDS011;49056;48.352;10.926;2022-08-19T02:31:21;1.67;;;0.90;;
62957;SDS011;49056;48.352;10.926;2022-08-19T02:36:43;1.58;;;1.02;;
62957;SDS011;49056;48.352;10.926;2022-08-19T02:42:03;2.23;;;1.10;;
62957;SDS011;49056;48.352;10.926;2022-08-19T02:47:24;1.92;;;1.15;;
62957;SDS011;49056;48.352;10.926;2022-08-19T02:52:44;2.42;;;1.40;;
62957;SDS011;49056;48.352;10.926;2022-08-19T02:58:05;1.73;;;1.20;;
62957;SDS011;49056;48.352;10.926;2022-08-19T03:03:26;2.72;;;1.27;;
62957;SDS011;49056;48.352;10.926;2022-08-19T03:08:47;3.08;;;1.60;;
62957;SDS011;49056;48.352;10.926;2022-08-19T03:14:09;2.90;;;1.60;;
62957;SDS011;49056;48.352;10.926;2022-08-19T03:19:29;3.00;;;2.12;;
62957;SDS011;49056;48.352;10.926;2022-08-19T03:24:51;3.22;;;2.00;;
62957;SDS011;49056;48.352;10.926;2022-08-19T03:30:12;2.93;;;1.90;;
62957;SDS011;49056;48.352;10.926;2022-08-19T03:35:32;3.00;;;1.65;;
62957;SDS011;49056;48.352;10.926;2022-08-19T03:40:53;3.47;;;1.85;;
62957;SDS011;49056;48.352;10.926;2022-08-19T03:46:14;3.97;;;2.55;;
62957;SDS011;49056;48.352;10.926;2022-08-19T03:51:36;3.55;;;2.28;;
62957;SDS011;49056;48.352;10.926;2022-08-19T03:56:56;3.37;;;2.10;;
62957;SDS011;49056;48.352;10.926;2022-08-19T04:02:17;4.05;;;2.78;;
62957;SDS011;49056;48.352;10.926;2022-08-19T04:07:38;5.20;;;2.78;;
62957;SDS011;49056;48.352;10.926;2022-08-19T04:13:00;3.57;;;2.70;;
62957;SDS011;49056;48.352;10.926;2022-08-19T04:18:20;4.10;;;2.87;;
62957;SDS011;49056;48.352;10.926;2022-08-19T04:23:41;4.30;;;2.70;;
62957;SDS011;49056;48.352;10.926;2022-08-19T04:29:03;4.72;;;3.17;;
62957;SDS011;49056;48.352;10.926;2022-08-19T04:34:27;4.28;;;2.80;;
62957;SDS011;49056;48.352;10.926;2022-08-19T04:39:48;4.07;;;3.08;;
62957;SDS011;49056;48.352;10.926;2022-08-19T04:45:27;4.57;;;2.80;;
62957;SDS011;49056;48.352;10.926;2022-08-19T04:50:47;5.97;;;3.33;;
62957;SDS011;49056;48.352;10.926;2022-08-19T04:56:10;4.62;;;3.12;;
62957;SDS011;49056;48.352;10.926;2022-08-19T05:01:32;4.43;;;3.15;;
62957;SDS011;49056;48.352;10.926;2022-08-19T05:06:53;5.15;;;3.20;;
62957;SDS011;49056;48.352;10.926;2022-08-19T05:12:14;4.93;;;3.22;;
62957;SDS011;49056;48.352;10.926;2022-08-19T05:17:35;5.75;;;3.37;;
62957;SDS011;49056;48.352;10.926;2022-08-19T05:22:56;4.80;;;3.20;;
62957;SDS011;49056;48.352;10.926;2022-08-19T05:28:16;4.75;;;3.05;;
62957;SDS011;49056;48.352;10.926;2022-08-19T05:33:37;5.18;;;2.90;;
62957;SDS011;49056;48.352;10.926;2022-08-19T05:38:59;4.65;;;3.05;;
62957;SDS011;49056;48.352;10.926;2022-08-19T05:44:20;4.25;;;3.00;;
62957;SDS011;49056;48.352;10.926;2022-08-19T05:49:43;4.97;;;2.85;;
62957;SDS011;49056;48.352;10.926;2022-08-19T05:55:03;5.05;;;3.12;;
62957;SDS011;49056;48.352;10.926;2022-08-19T06:00:25;4.53;;;3.17;;
62957;SDS011;49056;48.352;10.926;2022-08-19T06:05:45;4.80;;;3.10;;
62957;SDS011;49056;48.352;10.926;2022-08-19T06:11:16;4.93;;;2.95;;
62957;SDS011;49056;48.352;10.926;2022-08-19T06:16:38;5.12;;;3.10;;
62957;SDS011;49056;48.352;10.926;2022-08-19T06:21:59;5.00;;;3.12;;
62957;SDS011;49056;48.352;10.926;2022-08-19T06:27:20;3.87;;;2.87;;
62957;SDS011;49056;48.352;10.926;2022-08-19T06:32:40;6.78;;;2.97;;
62957;SDS011;49056;48.352;10.926;2022-08-19T06:38:01;5.77;;;3.50;;
62957;SDS011;49056;48.352;10.926;2022-08-19T06:43:21;4.87;;;3.27;;
62957;SDS011;49056;48.352;10.926;2022-08-19T06:48:42;7.35;;;3.92;;
62957;SDS011;49056;48.352;10.926;2022-08-19T06:54:03;6.80;;;3.92;;
62957;SDS011;49056;48.352;10.926;2022-08-19T06:59:24;4.67;;;3.20;;
62957;SDS011;49056;48.352;10.926;2022-08-19T07:04:47;5.90;;;3.80;;
62957;SDS011;49056;48.352;10.926;2022-08-19T07:10:08;6.40;;;3.93;;
62957;SDS011;49056;48.352;10.926;2022-08-19T07:15:29;6.20;;;3.83;;
62957;SDS011;49056;48.352;10.926;2022-08-19T07:20:50;6.10;;;3.92;;
62957;SDS011;49056;48.352;10.926;2022-08-19T07:26:19;5.45;;;4.15;;
62957;SDS011;49056;48.352;10.926;2022-08-19T07:31:39;6.70;;;4.57;;
62957;SDS011;49056;48.352;10.926;2022-08-19T07:36:59;6.00;;;3.77;;
62957;SDS011;49056;48.352;10.926;2022-08-19T07:42:20;6.10;;;4.03;;
62957;SDS011;49056;48.352;10.926;2022-08-19T07:47:41;7.25;;;4.20;;
62957;SDS011;49056;48.352;10.926;2022-08-19T07:53:01;6.62;;;4.47;;
62957;SDS011;49056;48.352;10.926;2022-08-19T07:58:22;6.37;;;4.10;;
62957;SDS011;49056;48.352;10.926;2022-08-19T08:03:43;7.37;;;4.25;;
62957;SDS011;49056;48.352;10.926;2022-08-19T08:09:27;6.72;;;4.20;;
62957;SDS011;49056;48.352;10.926;2022-08-19T08:14:48;5.32;;;3.87;;
62957;SDS011;49056;48.352;10.926;2022-08-19T08:20:10;8.00;;;4.43;;
62957;SDS011;49056;48.352;10.926;2022-08-19T08:25:31;6.30;;;4.50;;
62957;SDS011;49056;48.352;10.926;2022-08-19T08:30:51;5.37;;;3.30;;
62957;SDS011;49056;48.352;10.926;2022-08-19T08:36:12;6.87;;;4.22;;
62957;SDS011;49056;48.352;10.926;2022-08-19T08:41:53;6.53;;;4.07;;
62957;SDS011;49056;48.352;10.926;2022-08-19T08:47:16;7.40;;;5.35;;
62957;SDS011;49056;48.352;10.926;2022-08-19T08:52:45;6.43;;;4.43;;
62957;SDS011;49056;48.352;10.926;2022-08-19T08:58:09;7.10;;;4.93;;
62957;SDS011;49056;48.352;10.926;2022-08-19T09:03:33;7.70;;;4.50;;
62957;SDS011;49056;48.352;10.926;2022-08-19T09:09:12;8.30;;;4.68;;
62957;SDS011;49056;48.352;10.926;2022-08-19T09:14:35;6.50;;;5.15;;
62957;SDS011;49056;48.352;10.926;2022-08-19T09:20:03;6.62;;;4.43;;
62957;SDS011;49056;48.352;10.926;2022-08-19T09:25:25;7.45;;;4.85;;
62957;SDS011;49056;48.352;10.926;2022-08-19T09:30:46;7.73;;;4.87;;
62957;SDS011;49056;48.352;10.926;2022-08-19T09:36:07;8.30;;;5.03;;
62957;SDS011;49056;48.352;10.926;2022-08-19T09:41:27;7.75;;;5.07;;
62957;SDS011;49056;48.352;10.926;2022-08-19T09:46:48;7.23;;;4.63;;
62957;SDS011;49056;48.352;10.926;2022-08-19T09:52:09;8.43;;;5.18;;
62957;SDS011;49056;48.352;10.926;2022-08-19T09:57:30;8.45;;;5.07;;
62957;SDS011;49056;48.352;10.926;2022-08-19T10:02:50;8.83;;;5.03;;
62957;SDS011;49056;48.352;10.926;2022-08-19T10:08:11;7.20;;;4.65;;
62957;SDS011;49056;48.352;10.926;2022-08-19T10:13:32;7.07;;;4.22;;
62957;SDS011;49056;48.352;10.926;2022-08-19T10:18:54;7.78;;;5.37;;
62957;SDS011;49056;48.352;10.926;2022-08-19T10:24:15;7.53;;;4.93;;
62957;SDS011;49056;48.352;10.926;2022-08-19T10:29:35;9.23;;;5.17;;
62957;SDS011;49056;48.352;10.926;2022-08-19T10:34:56;7.70;;;5.03;;
62957;SDS011;49056;48.352;10.926;2022-08-19T10:40:16;7.53;;;4.90;;
62957;SDS011;49056;48.352;10.926;2022-08-19T10:45:37;8.20;;;4.70;;
62957;SDS011;49056;48.352;10.926;2022-08-19T10:50:58;7.75;;;4.85;;
62957;SDS011;49056;48.352;10.926;2022-08-19T10:56:37;5.37;;;3.45;;
62957;SDS011;49056;48.352;10.926;2022-08-19T11:02:13;6.62;;;4.00;;
62957;SDS011;49056;48.352;10.926;2022-08-19T11:07:33;6.67;;;4.20;;
62957;SDS011;49056;48.352;10.926;2022-08-19T11:12:54;4.27;;;3.30;;
62957;SDS011;49056;48.352;10.926;2022-08-19T11:18:15;5.22;;;2.92;;
62957;SDS011;49056;48.352;10.926;2022-08-19T11:23:37;3.92;;;2.80;;
62957;SDS011;49056;48.352;10.926;2022-08-19T11:28:58;4.22;;;2.65;;
62957;SDS011;49056;48.352;10.926;2022-08-19T11:34:19;3.80;;;2.35;;
62957;SDS011;49056;48.352;10.926;2022-08-19T11:39:40;3.05;;;2.12;;
62957;SDS011;49056;48.352;10.926;2022-08-19T11:45:02;5.20;;;2.78;;
62957;SDS011;49056;48.352;10.926;2022-08-19T11:50:24;2.97;;;1.83;;
62957;SDS011;49056;48.352;10.926;2022-08-19T11:55:44;2.40;;;1.65;;
62957;SDS011;49056;48.352;10.926;2022-08-19T12:01:06;2.33;;;1.40;;
62957;SDS011;49056;48.352;10.926;2022-08-19T12:06:28;2.30;;;1.52;;
62957;SDS011;49056;48.352;10.926;2022-08-19T12:11:49;3.72;;;1.62;;
62957;SDS011;49056;48.352;10.926;2022-08-19T12:17:11;3.75;;;1.75;;
62957;SDS011;49056;48.352;10.926;2022-08-19T12:22:31;2.67;;;1.62;;
62957;SDS011;49056;48.352;10.926;2022-08-19T12:27:53;2.77;;;1.53;;
62957;SDS011;49056;48.352;10.926;2022-08-19T12:33:14;3.12;;;1.60;;
62957;SDS011;49056;48.352;10.926;2022-08-19T12:38:35;2.67;;;1.48;;
62957;SDS011;49056;48.352;10.926;2022-08-19T12:43:55;2.40;;;1.17;;
62957;SDS011;49056;48.352;10.926;2022-08-19T12:49:16;2.10;;;1.25;;
62957;SDS011;49056;48.352;10.926;2022-08-19T12:54:36;2.40;;;1.10;;
62957;SDS011;49056;48.352;10.926;2022-08-19T12:59:57;2.17;;;1.05;;
62957;SDS011;49056;48.352;10.926;2022-08-19T13:05:18;1.67;;;0.75;;
62957;SDS011;49056;48.352;10.926;2022-08-19T13:10:42;3.05;;;1.20;;
62957;SDS011;49056;48.352;10.926;2022-08-19T13:16:03;2.05;;;0.85;;
62957;SDS011;49056;48.352;10.926;2022-08-19T13:21:24;1.85;;;1.15;;
62957;SDS011;49056;48.352;10.926;2022-08-19T13:26:45;1.95;;;1.15;;
62957;SDS011;49056;48.352;10.926;2022-08-19T13:32:05;2.05;;;1.00;;
62957;SDS011;49056;48.352;10.926;2022-08-19T13:37:45;2.25;;;1.25;;
62957;SDS011;49056;48.352;10.926;2022-08-19T13:43:05;2.03;;;1.13;;
62957;SDS011;49056;48.352;10.926;2022-08-19T13:48:26;1.40;;;1.12;;
62957;SDS011;49056;48.352;10.926;2022-08-19T13:53:46;1.62;;;1.00;;
62957;SDS011;49056;48.352;10.926;2022-08-19T13:59:07;1.98;;;1.37;;
62957;SDS011;49056;48.352;10.926;2022-08-19T14:04:28;2.65;;;1.27;;
62957;SDS011;49056;48.352;10.926;2022-08-19T14:09:48;1.92;;;1.27;;
62957;SDS011;49056;48.352;10.926;2022-08-19T14:15:09;2.37;;;1.55;;
62957;SDS011;49056;48.352;10.926;2022-08-19T14:20:30;3.25;;;2.05;;
62957;SDS011;49056;48.352;10.926;2022-08-19T14:25:50;2.83;;;1.73;;
62957;SDS011;49056;48.352;10.926;2022-08-19T14:31:11;1.73;;;1.12;;
62957;SDS011;49056;48.352;10.926;2022-08-19T14:36:32;3.33;;;1.77;;
62957;SDS011;49056;48.352;10.926;2022-08-19T14:41:54;3.15;;;2.10;;
62957;SDS011;49056;48.352;10.926;2022-08-19T14:47:16;3.90;;;2.30;;
62957;SDS011;49056;48.352;10.926;2022-08-19T14:52:36;2.53;;;1.80;;
62957;SDS011;49056;48.352;10.926;2022-08-19T14:57:57;3.10;;;1.90;;
62957;SDS011;49056;48.352;10.926;2022-08-19T15:03:17;3.40;;;2.08;;
62957;SDS011;49056;48.352;10.926;2022-08-19T15:08:38;2.30;;;1.58;;
62957;SDS011;49056;48.352;10.926;2022-08-19T15:14:00;3.30;;;2.37;;
62957;SDS011;49056;48.352;10.926;2022-08-19T15:19:21;3.25;;;2.03;;
62957;SDS011;49056;48.352;10.926;2022-08-19T15:24:41;3.80;;;2.12;;
62957;SDS011;49056;48.352;10.926;2022-08-19T15:30:06;3.17;;;1.85;;
62957;SDS011;49056;48.352;10.926;2022-08-19T15:35:28;2.47;;;1.75;;
62957;SDS011;49056;48.352;10.926;2022-08-19T15:40:48;3.70;;;1.77;;
62957;SDS011;49056;48.352;10.926;2022-08-19T15:46:09;2.83;;;1.77;;
62957;SDS011;49056;48.352;10.926;2022-08-19T15:51:31;2.60;;;1.50;;
62957;SDS011;49056;48.352;10.926;2022-08-19T15:56:52;2.42;;;1.67;;
62957;SDS011;49056;48.352;10.926;2022-08-19T16:02:32;2.28;;;1.40;;
62957;SDS011;49056;48.352;10.926;2022-08-19T16:08:11;2.25;;;1.20;;
62957;SDS011;49056;48.352;10.926;2022-08-19T16:13:51;2.15;;;1.23;;
62957;SDS011;49056;48.352;10.926;2022-08-19T16:19:12;4.28;;;1.67;;
62957;SDS011;49056;48.352;10.926;2022-08-19T16:24:35;2.90;;;1.55;;
62957;SDS011;49056;48.352;10.926;2022-08-19T16:29:55;1.70;;;0.98;;
62957;SDS011;49056;48.352;10.926;2022-08-19T16:35:17;2.10;;;1.23;;
62957;SDS011;49056;48.352;10.926;2022-08-19T16:40:38;2.12;;;1.30;;
62957;SDS011;49056;48.352;10.926;2022-08-19T16:45:59;2.40;;;1.40;;
62957;SDS011;49056;48.352;10.926;2022-08-19T16:51:21;2.72;;;1.15;;
62957;SDS011;49056;48.352;10.926;2022-08-19T16:56:41;2.75;;;1.50;;
62957;SDS011;49056;48.352;10.926;2022-08-19T17:02:02;2.12;;;1.35;;
62957;SDS011;49056;48.352;10.926;2022-08-19T17:07:23;1.77;;;1.20;;
62957;SDS011;49056;48.352;10.926;2022-08-19T17:12:44;2.37;;;1.37;;
62957;SDS011;49056;48.352;10.926;2022-08-19T17:18:05;1.87;;;1.17;;
62957;SDS011;49056;48.352;10.926;2022-08-19T17:23:26;2.80;;;1.37;;
62957;SDS011;49056;48.352;10.926;2022-08-19T17:28:49;2.42;;;1.50;;
62957;SDS011;49056;48.352;10.926;2022-08-19T17:34:10;1.83;;;1.12;;
62957;SDS011;49056;48.352;10.926;2022-08-19T17:39:31;2.50;;;1.70;;
62957;SDS011;49056;48.352;10.926;2022-08-19T17:44:54;2.90;;;1.50;;
62957;SDS011;49056;48.352;10.926;2022-08-19T17:50:18;2.03;;;1.50;;
62957;SDS011;49056;48.352;10.926;2022-08-19T17:55:39;3.05;;;1.60;;
62957;SDS011;49056;48.352;10.926;2022-08-19T18:00:59;3.03;;;1.55;;
62957;SDS011;49056;48.352;10.926;2022-08-19T18:06:21;3.20;;;1.95;;
62957;SDS011;49056;48.352;10.926;2022-08-19T18:11:42;3.70;;;2.27;;
62957;SDS011;49056;48.352;10.926;2022-08-19T18:17:05;2.47;;;1.60;;
62957;SDS011;49056;48.352;10.926;2022-08-19T18:22:32;3.12;;;1.90;;
62957;SDS011;49056;48.352;10.926;2022-08-19T18:33:15;4.03;;;1.85;;
62957;SDS011;49056;48.352;10.926;2022-08-19T18:38:35;2.70;;;1.73;;
62957;SDS011;49056;48.352;10.926;2022-08-19T18:44:14;2.12;;;1.45;;
62957;SDS011;49056;48.352;10.926;2022-08-19T18:49:53;3.22;;;1.98;;
62957;SDS011;49056;48.352;10.926;2022-08-19T18:55:14;2.15;;;1.48;;
62957;SDS011;49056;48.352;10.926;2022-08-19T19:00:37;3.17;;;1.70;;
62957;SDS011;49056;48.352;10.926;2022-08-19T19:05:59;4.03;;;1.80;;
62957;SDS011;49056;48.352;10.926;2022-08-19T19:11:27;2.55;;;1.55;;
62957;SDS011;49056;48.352;10.926;2022-08-19T19:22:10;2.57;;;1.50;;
62957;SDS011;49056;48.352;10.926;2022-08-19T19:27:31;3.20;;;1.80;;
62957;SDS011;49056;48.352;10.926;2022-08-19T19:32:51;3.20;;;1.60;;
62957;SDS011;49056;48.352;10.926;2022-08-19T19:38:14;2.70;;;1.73;;
62957;SDS011;49056;48.352;10.926;2022-08-19T19:43:35;2.63;;;2.03;;
62957;SDS011;49056;48.352;10.926;2022-08-19T19:48:57;2.85;;;1.50;;
62957;SDS011;49056;48.352;10.926;2022-08-19T19:54:17;2.37;;;1.42;;
62957;SDS011;49056;48.352;10.926;2022-08-19T19:59:39;2.70;;;1.75;;
62957;SDS011;49056;48.352;10.926;2022-08-19T20:05:01;1.90;;;1.40;;
62957;SDS011;49056;48.352;10.926;2022-08-19T20:10:21;3.07;;;1.53;;
62957;SDS011;49056;48.352;10.926;2022-08-19T20:15:42;2.40;;;1.50;;
62957;SDS011;49056;48.352;10.926;2022-08-19T20:21:02;1.70;;;1.30;;
62957;SDS011;49056;48.352;10.926;2022-08-19T20:26:23;2.90;;;1.37;;
62957;SDS011;49056;48.352;10.926;2022-08-19T20:31:44;2.20;;;1.27;;
62957;SDS011;49056;48.352;10.926;2022-08-19T20:37:05;1.62;;;1.20;;
62957;SDS011;49056;48.352;10.926;2022-08-19T20:42:28;2.53;;;1.27;;
62957;SDS011;49056;48.352;10.926;2022-08-19T20:47:48;2.97;;;1.83;;
62957;SDS011;49056;48.352;10.926;2022-08-19T20:53:09;2.33;;;1.33;;
62957;SDS011;49056;48.352;10.926;2022-08-19T20:58:30;1.83;;;1.27;;
62957;SDS011;49056;48.352;10.926;2022-08-19T21:03:52;2.63;;;1.73;;
62957;SDS011;49056;48.352;10.926;2022-08-19T21:09:12;2.37;;;1.50;;
62957;SDS011;49056;48.352;10.926;2022-08-19T21:14:36;3.00;;;1.93;;
62957;SDS011;49056;48.352;10.926;2022-08-19T21:19:58;3.35;;;2.17;;
62957;SDS011;49056;48.352;10.926;2022-08-19T21:25:18;3.13;;;1.60;;
62957;SDS011;49056;48.352;10.926;2022-08-19T21:30:39;3.87;;;2.05;;
62957;SDS011;49056;48.352;10.926;2022-08-19T21:36:00;3.10;;;2.05;;
62957;SDS011;49056;48.352;10.926;2022-08-19T21:41:22;3.00;;;1.90;;
62957;SDS011;49056;48.352;10.926;2022-08-19T21:46:42;2.70;;;1.93;;
62957;SDS011;49056;48.352;10.926;2022-08-19T21:52:02;2.77;;;1.70;;
62957;SDS011;49056;48.352;10.926;2022-08-19T21:57:23;3.10;;;2.00;;
62957;SDS011;49056;48.352;10.926;2022-08-19T22:02:44;3.47;;;1.83;;
62957;SDS011;49056;48.352;10.926;2022-08-19T22:08:05;3.47;;;2.13;;
62957;SDS011;49056;48.352;10.926;2022-08-19T22:13:25;3.08;;;1.85;;
62957;SDS011;49056;48.352;10.926;2022-08-19T22:18:47;3.00;;;1.97;;
62957;SDS011;49056;48.352;10.926;2022-08-19T22:24:10;3.30;;;2.20;;
62957;SDS011;49056;48.352;10.926;2022-08-19T22:29:31;3.30;;;2.22;;
62957;SDS011;49056;48.352;10.926;2022-08-19T22:34:51;4.03;;;2.17;;
62957;SDS011;49056;48.352;10.926;2022-08-19T22:40:12;2.83;;;1.77;;
62957;SDS011;49056;48.352;10.926;2022-08-19T22:45:33;3.08;;;2.17;;
62957;SDS011;49056;48.352;10.926;2022-08-19T22:50:55;3.47;;;2.15;;
62957;SDS011;49056;48.352;10.926;2022-08-19T22:56:34;3.53;;;2.08;;
62957;SDS011;49056;48.352;10.926;2022-08-19T23:01:55;3.65;;;2.20;;
62957;SDS011;49056;48.352;10.926;2022-08-19T23:07:15;3.57;;;2.03;;
62957;SDS011;49056;48.352;10.926;2022-08-19T23:12:37;3.17;;;2.05;;
62957;SDS011;49056;48.352;10.926;2022-08-19T23:17:59;3.95;;;2.40;;
62957;SDS011;49056;48.352;10.926;2022-08-19T23:23:20;4.28;;;2.37;;
62957;SDS011;49056;48.352;10.926;2022-08-19T23:28:43;3.20;;;2.42;;
62957;SDS011;49056;48.352;10.926;2022-08-19T23:34:23;3.35;;;2.33;;
62957;SDS011;49056;48.352;10.926;2022-08-19T23:39:43;4.68;;;2.80;;
62957;SDS011;49056;48.352;10.926;2022-08-19T23:45:04;4.40;;;2.97;;
62957;SDS011;49056;48.352;10.926;2022-08-19T23:50:26;3.92;;;2.47;;
62957;SDS011;49056;48.352;10.926;2022-08-19T23:55:47;4.57;;;2.50;;
